Time;durP1;ratioP1;P1;durP2;ratioP2;P2;SDS_P1;SDS_P2;PMS_P1;PMS_P2;Temp;Humidity;BMP_temperature;BMP_pressure;BME280_temperature;BME280_humidity;BME280_pressure;Samples;Min_cycle;Max_cycle;Signal;HPM_P1;HPM_P2
2022/07/23 00:00:29;;;;;;;11.35;7.22;;;;;;;22.50;88.83;98237.48;1679472;83;28061;-87
2022/07/23 00:03:04;;;;;;;13.18;8.15;;;;;;;22.46;89.20;98232.22;1681088;85;28058;-88
2022/07/23 00:05:33;;;;;;;14.98;8.20;;;;;;;22.54;89.61;98234.25;1682970;83;28067;-90
2022/07/23 00:08:00;;;;;;;16.73;8.20;;;;;;;22.63;89.95;98230.16;1679515;83;28119;-90
2022/07/23 00:10:26;;;;;;;16.45;8.68;;;;;;;22.70;90.30;98225.70;1682940;83;28121;-85
2022/07/23 00:12:52;;;;;;;13.70;7.72;;;;;;;22.76;90.49;98228.98;1681028;85;28166;-88
2022/07/23 00:15:22;;;;;;;15.55;8.80;;;;;;;22.81;90.61;98238.07;1679266;84;28089;-89
2022/07/23 00:17:49;;;;;;;14.38;8.28;;;;;;;22.78;90.51;98241.13;1681366;85;28476;-85
2022/07/23 00:20:31;;;;;;;17.82;9.00;;;;;;;22.81;90.59;98243.41;1682844;83;28104;-87
2022/07/23 00:23:01;;;;;;;13.08;8.03;;;;;;;22.84;90.63;98247.05;1684175;85;28113;-88
2022/07/23 00:25:30;;;;;;;13.13;8.30;;;;;;;22.84;90.66;98244.89;1684345;85;28193;-88
2022/07/23 00:27:58;;;;;;;9.73;8.20;;;;;;;22.77;90.64;98247.98;1681320;83;28129;-85
2022/07/23 00:30:25;;;;;;;12.33;8.03;;;;;;;22.73;90.86;98243.54;1683423;84;28186;-89
2022/07/23 00:32:56;;;;;;;12.23;7.42;;;;;;;22.71;91.04;98247.37;1683830;85;28064;-85
2022/07/23 00:35:25;;;;;;;11.88;7.97;;;;;;;22.70;91.22;98251.05;1697331;83;28099;-85
2022/07/23 00:37:53;;;;;;;15.08;9.08;;;;;;;22.66;91.40;98253.77;1699621;82;28005;-85
2022/07/23 00:40:19;;;;;;;11.48;8.63;;;;;;;22.64;91.54;98255.83;1699003;82;28055;-85
2022/07/23 00:42:51;;;;;;;13.50;8.55;;;;;;;22.59;91.69;98249.69;1697601;83;28032;-89
2022/07/23 00:45:17;;;;;;;13.65;8.95;;;;;;;22.52;91.88;98248.81;1720701;81;28187;-85
2022/07/23 00:47:47;;;;;;;12.90;9.08;;;;;;;22.42;92.14;98244.28;1720867;81;28168;-85
2022/07/23 00:50:19;;;;;;;13.78;7.92;;;;;;;22.37;92.45;98245.31;1722969;81;28003;-87
2022/07/23 00:52:46;;;;;;;9.98;7.87;;;;;;;22.29;92.70;98241.44;1712331;82;28013;-87
2022/07/23 00:55:14;;;;;;;13.18;8.70;;;;;;;22.23;93.01;98232.84;1690527;83;28170;-87
2022/07/23 00:57:41;;;;;;;12.68;7.67;;;;;;;22.19;93.35;98237.73;1684308;84;28098;-84
2022/07/23 01:00:14;;;;;;;13.08;8.08;;;;;;;22.17;93.66;98238.91;1675681;83;28074;-85
2022/07/23 01:02:40;;;;;;;10.08;7.92;;;;;;;22.15;93.87;98238.29;1682642;84;28103;-85
2022/07/23 01:05:09;;;;;;;13.62;8.55;;;;;;;22.14;94.21;98243.30;1704562;83;28091;-89
2022/07/23 01:07:42;;;;;;;11.20;7.72;;;;;;;22.11;94.48;98237.31;1672357;85;28042;-87
2022/07/23 01:12:55;;;;;;;14.07;7.72;;;;;;;22.09;94.90;98237.98;1700287;83;28201;-89
2022/07/23 01:15:21;;;;;;;10.85;7.10;;;;;;;22.07;95.11;98241.36;1700717;82;28094;-86
2022/07/23 01:17:48;;;;;;;10.75;7.15;;;;;;;22.05;95.27;98235.88;1697130;82;28084;-85
2022/07/23 01:20:21;;;;;;;11.95;8.30;;;;;;;22.04;95.45;98235.05;1699030;82;28076;-89
2022/07/23 01:22:47;;;;;;;12.30;8.05;;;;;;;22.04;95.68;98224.89;1699247;83;28132;-89
2022/07/23 01:25:20;;;;;;;8.48;7.42;;;;;;;22.01;95.86;98227.44;1697590;82;28024;-85
2022/07/23 01:27:51;;;;;;;8.60;6.80;;;;;;;21.98;96.00;98222.45;1696303;82;28079;-85
2022/07/23 01:30:17;;;;;;;10.32;6.92;;;;;;;21.97;96.10;98226.66;1697873;83;25249;-85
2022/07/23 01:32:43;;;;;;;8.90;6.80;;;;;;;21.92;96.18;98233.02;1697911;82;28047;-89
2022/07/23 01:35:16;;;;;;;12.45;7.50;;;;;;;21.83;96.26;98233.59;1685649;82;28181;-85
2022/07/23 01:37:51;;;;;;;;;;;;;;;21.80;96.44;98232.64;1687582;84;28136;-85
2022/07/23 01:40:18;;;;;;;;;;;;;;;21.82;96.64;98229.27;1689711;84;21189;-88
2022/07/23 01:42:50;;;;;;;;;;;;;;;21.85;96.78;98228.92;1696032;83;20796;-85
2022/07/23 01:45:28;;;;;;;;;;;;;;;21.88;97.03;98234.38;1693604;83;20226;-87
2022/07/23 01:47:54;;;;;;;;;;;;;;;21.89;97.21;98226.70;1671504;83;211343;-90
2022/07/23 01:50:24;;;;;;;;;;;;;;;21.89;97.26;98223.54;1692758;83;20309;-88
2022/07/23 01:52:59;;;;;;;;;;;;;;;21.85;97.33;98218.27;1689051;83;26849;-88
2022/07/23 01:55:28;;;;;;;;;;;;;;;21.79;97.38;98215.50;1691040;84;24257;-90
2022/07/23 01:58:06;;;;;;;;;;;;;;;21.76;97.50;98219.88;1694295;83;20253;-92
2022/07/23 02:00:31;;;;;;;;;;;;;;;21.71;97.72;98217.77;1686794;83;24742;-89
2022/07/23 02:02:59;;;;;;;;;;;;;;;21.58;97.88;98220.22;1688488;83;20918;-86
2022/07/23 02:05:25;;;;;;;;;;;;;;;21.45;98.12;98220.83;1697906;83;25999;-85
2022/07/23 02:07:54;;;;;;;;;;;;;;;21.31;98.40;98223.47;1691259;83;24430;-86
2022/07/23 02:10:23;;;;;;;;;;;;;;;21.14;98.76;98220.95;1696150;84;20249;-85
2022/07/23 02:12:53;;;;;;;;;;;;;;;21.01;99.21;98219.84;1668471;83;206062;-87
2022/07/23 02:15:20;;;;;;;;;;;;;;;20.92;99.75;98217.77;1658905;83;208597;-85
2022/07/23 02:17:46;;;;;;;;;;;;;;;20.88;100.00;98217.80;1659157;84;204734;-85
2022/07/23 02:20:14;;;;;;;;;;;;;;;20.86;100.00;98229.94;1654026;84;223310;-88
2022/07/23 02:22:47;;;;;;;;;;;;;;;20.90;100.00;98226.41;1664816;83;1002826;-87
2022/07/23 02:25:13;;;;;;;;;;;;;;;21.05;100.00;98232.64;1681352;83;186712;-87
2022/07/23 02:27:39;;;;;;;;;;;;;;;21.16;100.00;98229.59;1680260;84;217713;-84
2022/07/23 02:30:05;;;;;;;;;;;;;;;21.09;100.00;98225.95;1636534;83;225572;-85
2022/07/23 02:32:31;;;;;;;;;;;;;;;20.99;100.00;98220.55;1686696;84;43761;-85
2022/07/23 02:34:57;;;;;;;;;;;;;;;20.97;100.00;98220.72;1680393;83;543256;-85
2022/07/23 02:37:31;;;;;;;;;;;;;;;20.86;100.00;98221.12;1685450;84;41191;-87
2022/07/23 02:40:03;;;;;;;;;;;;;;;20.78;100.00;98222.00;1691629;84;28282;-87
2022/07/23 02:42:34;;;;;;;;;;;;;;;20.74;100.00;98216.72;1690515;83;26037;-85
2022/07/23 02:45:09;;;;;;;7.42;6.65;;;;;;;20.74;100.00;98217.22;1671791;83;224055;-87
2022/07/23 02:47:38;;;;;;;8.98;7.22;;;;;;;20.67;100.00;98213.12;1685114;84;28097;-85
2022/07/23 02:50:11;;;;;;;9.20;7.12;;;;;;;20.64;100.00;98216.13;1690169;83;28107;-87
2022/07/23 02:52:43;;;;;;;9.13;7.23;;;;;;;20.78;100.00;98214.02;1689626;83;28088;-85
2022/07/23 02:55:10;;;;;;;9.75;6.53;;;;;;;21.00;100.00;98218.22;1681296;84;28087;-89
2022/07/23 02:57:39;;;;;;;8.00;6.60;;;;;;;21.12;100.00;98214.94;1686614;83;28175;-85
2022/07/23 03:00:07;;;;;;;9.73;6.08;;;;;;;21.22;100.00;98211.55;1687274;83;28088;-87
2022/07/23 03:02:34;;;;;;;7.92;6.70;;;;;;;21.28;100.00;98202.02;1688739;83;28073;-89
2022/07/23 03:05:00;;;;;;;8.60;6.58;;;;;;;21.27;100.00;98206.51;1688224;83;28096;-89
2022/07/23 03:07:29;;;;;;;8.63;6.40;;;;;;;21.28;100.00;98210.00;1687792;83;28053;-85
2022/07/23 03:09:56;;;;;;;8.60;6.33;;;;;;;21.30;100.00;98208.00;1683029;83;28093;-85
2022/07/23 03:12:27;;;;;;;8.60;6.55;;;;;;;21.29;100.00;98210.33;1688510;83;28114;-87
2022/07/23 03:14:54;;;;;;;8.05;5.42;;;;;;;21.33;100.00;98213.48;1686748;83;28502;-85
2022/07/23 03:17:20;;;;;;;10.95;7.20;;;;;;;21.36;100.00;98211.77;1685685;84;28171;-85
2022/07/23 03:19:49;;;;;;;7.87;6.78;;;;;;;21.36;100.00;98213.11;1687482;83;28112;-87
2022/07/23 03:22:15;;;;;;;8.05;6.25;;;;;;;21.31;100.00;98206.17;1686512;83;28186;-84
2022/07/23 03:24:53;;;;;;;8.80;6.72;;;;;;;21.32;100.00;98208.66;1684623;83;28740;-87
2022/07/23 03:27:25;;;;;;;8.50;6.83;;;;;;;21.34;100.00;98213.78;1686428;84;28073;-87
2022/07/23 03:30:00;;;;;;;8.93;6.65;;;;;;;21.36;100.00;98216.60;1683393;83;28069;-89
2022/07/23 03:32:29;;;;;;;9.40;7.25;;;;;;;21.35;100.00;98216.27;1685953;83;28148;-85
2022/07/23 03:34:55;;;;;;;9.23;6.85;;;;;;;21.32;100.00;98226.46;1686718;83;28070;-88
2022/07/23 03:37:25;;;;;;;8.15;6.70;;;;;;;21.32;100.00;98212.66;1682277;84;28152;-85
2022/07/23 03:39:54;;;;;;;10.38;7.28;;;;;;;21.34;100.00;98214.61;1683344;85;28072;-89
2022/07/23 03:42:24;;;;;;;10.32;7.20;;;;;;;21.37;100.00;98220.92;1684833;83;28174;-89
2022/07/23 03:44:55;;;;;;;9.18;6.92;;;;;;;21.40;100.00;98216.55;1685222;85;28184;-87
2022/07/23 03:47:24;;;;;;;8.88;6.97;;;;;;;21.44;100.00;98217.04;1684130;85;28185;-85
2022/07/23 03:49:50;;;;;;;9.65;6.70;;;;;;;21.49;100.00;98215.99;1682698;85;28106;-85
2022/07/23 03:52:19;;;;;;;9.30;7.00;;;;;;;21.53;100.00;98211.95;1683873;83;28230;-87
2022/07/23 03:54:45;;;;;;;9.58;7.03;;;;;;;21.57;100.00;98213.23;1684617;85;28193;-86
2022/07/23 03:57:11;;;;;;;9.03;6.95;;;;;;;21.60;100.00;98212.89;1683696;83;28079;-90
2022/07/23 03:59:37;;;;;;;7.35;6.55;;;;;;;21.61;100.00;98210.02;1684224;85;28091;-87
2022/07/23 04:02:15;;;;;;;8.63;6.75;;;;;;;21.65;100.00;98209.17;1681106;83;43086;-87
2022/07/23 04:04:41;;;;;;;10.10;6.78;;;;;;;21.66;100.00;98207.63;1683259;83;28091;-85
2022/07/23 04:07:08;;;;;;;10.15;6.40;;;;;;;21.68;100.00;98205.62;1682343;83;28122;-86
2022/07/23 04:09:35;;;;;;;7.58;6.75;;;;;;;21.74;100.00;98208.56;1682745;85;28031;-86
2022/07/23 04:12:01;;;;;;;8.35;6.50;;;;;;;21.82;100.00;98212.48;1682593;85;28098;-86
2022/07/23 04:14:27;;;;;;;8.23;6.58;;;;;;;21.91;100.00;98207.38;1682044;85;28131;-86
2022/07/23 04:16:59;;;;;;;8.48;6.53;;;;;;;22.00;100.00;98203.13;1680178;83;28163;-86
2022/07/23 04:19:32;;;;;;;7.95;6.17;;;;;;;22.08;100.00;98203.05;1681033;85;28075;-86
2022/07/23 04:21:58;;;;;;;10.43;6.80;;;;;;;22.16;100.00;98204.77;1683368;83;28093;-89
2022/07/23 04:24:25;;;;;;;7.33;6.45;;;;;;;22.25;100.00;98208.17;1684422;85;28071;-86
2022/07/23 04:26:51;;;;;;;10.28;5.78;;;;;;;22.10;100.00;98203.66;1681569;85;28180;-86
2022/07/23 04:29:18;;;;;;;8.75;6.70;;;;;;;21.94;100.00;98197.67;1683855;83;28145;-86
2022/07/23 04:31:55;;;;;;;7.37;6.55;;;;;;;21.90;100.00;98199.89;1687652;83;28093;-87
2022/07/23 04:34:21;;;;;;;8.25;6.47;;;;;;;22.07;100.00;98206.71;1681701;85;28094;-86
2022/07/23 04:36:48;;;;;;;7.80;5.85;;;;;;;22.35;100.00;98213.52;1683385;81;28113;-87
2022/07/23 04:39:14;;;;;;;6.92;6.22;;;;;;;22.58;100.00;98217.39;1685733;84;28147;-87
2022/07/23 04:41:43;;;;;;;8.73;6.65;;;;;;;22.74;100.00;98208.34;1683124;84;28090;-85
2022/07/23 04:44:12;;;;;;;9.60;6.58;;;;;;;22.84;100.00;98208.35;1683507;84;28079;-85
2022/07/23 04:46:39;;;;;;;8.58;6.28;;;;;;;22.92;100.00;98204.72;1683953;84;28087;-87
2022/07/23 04:49:06;;;;;;;8.25;6.72;;;;;;;22.97;100.00;98202.30;1683662;84;28080;-86
2022/07/23 04:51:32;;;;;;;7.87;6.87;;;;;;;22.97;100.00;98200.96;1684943;84;28083;-88
2022/07/23 04:54:01;;;;;;;7.95;6.12;;;;;;;22.82;100.00;98199.70;1684363;84;28209;-88
2022/07/23 04:56:27;;;;;;;9.38;6.45;;;;;;;22.66;100.00;98193.75;1682006;83;28480;-88
2022/07/23 04:58:54;;;;;;;7.25;6.08;;;;;;;22.54;100.00;98197.41;1684307;84;27992;-88
2022/07/23 05:01:21;;;;;;;9.28;6.10;;;;;;;;;;1684430;84;28075;-88
2022/07/23 05:03:48;;;;;;;7.90;6.20;;;;;;;22.50;100.00;98186.81;1682703;84;28153;-88
2022/07/23 05:06:32;;;;;;;7.90;6.42;;;;;;;22.45;100.00;98183.38;1684606;84;28094;-88
2022/07/23 05:09:02;;;;;;;7.65;6.67;;;;;;;22.44;100.00;98177.72;1682293;84;28113;-85
2022/07/23 05:11:28;;;;;;;7.45;6.75;;;;;;;22.52;100.00;98180.80;1685155;84;28096;-85
2022/07/23 05:14:02;;;;;;;7.08;6.05;;;;;;;22.62;100.00;98179.14;1685349;84;28004;-89
2022/07/23 05:16:28;;;;;;;8.20;6.67;;;;;;;22.64;100.00;98179.80;1681442;83;28116;-85
2022/07/23 05:18:54;;;;;;;8.70;6.67;;;;;;;22.75;100.00;98177.95;1683894;84;28143;-85
2022/07/23 05:21:20;;;;;;;8.38;5.78;;;;;;;22.74;100.00;98171.83;1683578;84;28027;-87
2022/07/23 05:23:51;;;;;;;7.87;6.60;;;;;;;22.72;100.00;98173.02;1683657;84;28110;-89
2022/07/23 05:26:17;;;;;;;10.93;6.75;;;;;;;22.72;100.00;98170.34;1684665;83;28173;-87
2022/07/23 05:28:44;;;;;;;8.08;6.62;;;;;;;22.73;100.00;98168.84;1683928;84;28236;-86
2022/07/23 05:31:31;;;;;;;9.73;7.08;;;;;;;22.76;100.00;98157.77;1681742;84;28061;-87
2022/07/23 05:33:59;;;;;;;11.73;7.12;;;;;;;22.85;100.00;98165.16;1682171;84;28184;-86
2022/07/23 05:36:26;;;;;;;6.97;6.28;;;;;;;22.90;100.00;98165.40;1683784;83;40114;-89
2022/07/23 05:38:59;;;;;;;8.08;6.60;;;;;;;22.97;100.00;98166.27;1679472;83;28045;-89
2022/07/23 05:41:25;;;;;;;10.18;7.00;;;;;;;23.14;100.00;98160.14;1684570;84;28087;-90
2022/07/23 05:43:57;;;;;;;8.15;6.40;;;;;;;23.33;100.00;98162.98;1672562;84;28178;-85
2022/07/23 05:46:26;;;;;;;9.45;6.42;;;;;;;23.56;100.00;98162.77;1631993;85;28132;-85
2022/07/23 05:48:53;;;;;;;9.78;6.37;;;;;;;23.75;100.00;98158.04;1689013;83;28117;-89
2022/07/23 05:51:21;;;;;;;8.33;6.22;;;;;;;23.91;100.00;98154.20;1677952;83;28152;-89
2022/07/23 05:53:51;;;;;;;8.45;6.75;;;;;;;23.98;100.00;98155.07;1665702;83;28104;-89
2022/07/23 05:56:18;;;;;;;9.58;6.42;;;;;;;23.89;100.00;98148.77;1680135;84;28174;-86
2022/07/23 05:58:50;;;;;;;9.15;7.42;;;;;;;23.81;100.00;98142.23;1718952;81;28040;-89
2022/07/23 06:01:17;;;;;;;8.60;6.87;;;;;;;23.73;100.00;98137.86;1707382;83;28148;-85
2022/07/23 06:03:43;;;;;;;9.95;7.40;;;;;;;23.83;100.00;98136.19;1654266;84;28198;-89
2022/07/23 06:06:09;;;;;;;10.70;7.20;;;;;;;23.92;100.00;98134.98;1669173;85;28103;-85
2022/07/23 06:08:38;;;;;;;12.82;7.37;;;;;;;23.99;100.00;98141.20;1671596;84;28508;-89
2022/07/23 06:11:10;;;;;;;11.00;7.78;;;;;;;24.05;100.00;98139.06;1675878;84;28265;-85
2022/07/23 06:13:45;;;;;;;10.23;7.12;;;;;;;24.11;100.00;98139.61;1693150;84;28080;-87
2022/07/23 06:16:11;;;;;;;11.03;6.92;;;;;;;24.11;100.00;98148.97;1672655;84;28151;-89
2022/07/23 06:18:43;;;;;;;10.13;7.08;;;;;;;24.16;100.00;98147.85;1654223;84;28164;-86
2022/07/23 06:21:09;;;;;;;11.10;7.10;;;;;;;24.24;100.00;98146.36;1686694;83;28090;-86
2022/07/23 06:23:36;;;;;;;10.23;6.67;;;;;;;24.38;100.00;98148.57;1688970;83;28142;-87
2022/07/23 06:26:17;;;;;;;12.53;7.08;;;;;;;24.54;100.00;98142.85;1687120;83;28094;-85
2022/07/23 06:28:48;;;;;;;7.20;6.50;;;;;;;24.69;100.00;98143.48;1690324;83;28074;-89
2022/07/23 06:31:14;;;;;;;;;;;;;;;24.84;100.00;98144.12;1690292;84;20388;-89
2022/07/23 06:33:42;;;;;;;;;;;;;;;24.93;100.00;98142.08;1690563;84;20817;-86
2022/07/23 06:36:08;;;;;;;;;;;;;;;24.91;100.00;98143.65;1690537;84;22006;-89
2022/07/23 06:38:35;;;;;;;;;;;;;;;25.03;100.00;98142.52;1729339;81;21021;-89
2022/07/23 06:41:01;;;;;;;;;;;;;;;25.18;100.00;98140.97;1725501;83;24507;-86
2022/07/23 06:43:27;;;;;;;;;;;;;;;25.25;100.00;98135.09;1722362;83;20338;-86
2022/07/23 06:45:53;;;;;;;;;;;;;;;25.18;100.00;98132.93;1696563;83;20777;-90
2022/07/23 06:48:22;;;;;;;;;;;;;;;25.17;100.00;98140.66;1726737;83;20328;-87
2022/07/23 06:50:52;;;;;;;;;;;;;;;25.12;100.00;98139.94;1725841;81;25979;-87
2022/07/23 06:53:23;;;;;;;;;;;;;;;25.03;100.00;98142.52;1726683;83;24498;-87
2022/07/23 06:55:55;;;;;;;;;;;;;;;25.06;100.00;98147.97;1721430;83;20598;-86
2022/07/23 06:58:24;;;;;;;;;;;;;;;25.11;100.00;98149.00;1717201;82;25422;-89
2022/07/23 07:00:59;;;;;;;;;;;;;;;25.06;100.00;98147.45;1720483;83;21982;-86
2022/07/23 07:03:25;;;;;;;;;;;;;;;25.12;100.00;98143.95;1721784;83;26144;-86
2022/07/23 07:05:51;;;;;;;;;;;;;;;25.25;100.00;98147.16;1717882;83;20355;-87
2022/07/23 07:08:20;;;;;;;;;;;;;;;25.49;100.00;98147.83;1711526;83;20610;-86
2022/07/23 07:10:46;;;;;;;;;;;;;;;25.71;100.00;98147.09;1711065;82;24875;-85
2022/07/23 07:13:12;;;;;;;;;;;;;;;25.90;100.00;98149.42;1709713;83;20926;-86
2022/07/23 07:15:38;;;;;;;;;;;;;;;26.05;100.00;98146.78;1707037;83;25937;-84
2022/07/23 07:18:04;;;;;;;;;;;;;;;26.20;100.00;98140.63;1711932;83;20320;-90
2022/07/23 07:20:33;;;;;;;;;;;;;;;26.35;100.00;98144.94;1708256;82;20189;-90
2022/07/23 07:23:01;;;;;;;;;;;;;;;26.47;100.00;98148.56;1708439;83;24855;-90
2022/07/23 07:25:27;;;;;;;;;;;;;;;26.54;100.00;98158.75;1709212;83;22324;-85
2022/07/23 07:27:53;;;;;;;;;;;;;;;26.56;100.00;98144.61;1709009;83;21057;-84
2022/07/23 07:30:19;;;;;;;;;;;;;;;26.60;100.00;98151.19;1710954;82;24371;-84
2022/07/23 07:32:51;;;;;;;;;;;;;;;26.57;100.00;98146.23;1712487;82;20751;-89
2022/07/23 07:35:17;;;;;;;;;;;;;;;26.59;100.00;98150.36;1710461;83;24764;-86
2022/07/23 07:37:45;;;;;;;;;;;;;;;26.61;100.00;98149.63;1710078;82;20862;-89
2022/07/23 07:40:11;;;;;;;;;;;;;;;26.62;100.00;98153.14;1703567;84;26051;-89
2022/07/23 07:42:44;;;;;;;;;;;;;;;26.71;100.00;98147.81;1705124;83;20297;-85
2022/07/23 07:45:10;;;;;;;;;;;;;;;26.81;100.00;98149.49;1704278;84;20187;-85
2022/07/23 07:47:36;;;;;;;;;;;;;;;26.82;100.00;98144.43;1702991;84;24782;-89
2022/07/23 07:50:02;;;;;;;;;;;;;;;26.84;100.00;98149.05;1707769;82;20406;-85
2022/07/23 07:52:38;;;;;;;;;;;;;;;26.78;100.00;98141.88;1705161;82;25986;-88
2022/07/23 07:55:07;;;;;;;;;;;;;;;26.95;100.00;98146.20;1705251;84;24467;-87
2022/07/23 07:57:33;;;;;;;;;;;;;;;27.09;100.00;98137.53;1706585;84;20295;-88
2022/07/23 08:00:01;;;;;;;;;;;;;;;27.20;100.00;98136.83;1709084;84;24904;-89
2022/07/23 08:02:27;;;;;;;;;;;;;;;27.20;100.00;98126.08;1701689;84;22201;-90
2022/07/23 08:04:53;;;;;;;;;;;;;;;27.18;99.57;98117.40;1704056;82;26010;-89
2022/07/23 08:07:19;;;;;;;;;;;;;;;27.17;99.11;98109.86;1704993;82;20237;-89
2022/07/23 08:10:01;;;;;;;;;;;;;;;27.21;98.91;98104.36;1707929;82;20275;-88
2022/07/23 08:12:27;;;;;;;;;;;;;;;27.29;98.78;98107.27;1706236;84;25011;-85
2022/07/23 08:14:55;;;;;;;;;;;;;;;27.35;98.41;98102.36;1707039;83;20256;-87
2022/07/23 08:17:33;;;;;;;;;;;;;;;27.38;97.63;98096.03;1706746;82;26106;-90
2022/07/23 08:20:06;;;;;;;;;;;;;;;27.43;97.05;98095.37;1704945;82;24351;-89
2022/07/23 08:22:48;;;;;;;;;;;;;;;27.52;96.76;98099.42;1704390;84;34073;-86
2022/07/23 08:25:15;;;;;;;;;;;;;;;27.62;96.86;98097.55;1704544;84;24840;-85
2022/07/23 08:27:43;;;;;;;;;;;;;;;27.74;96.43;98095.77;1705696;84;22707;-86
2022/07/23 08:30:09;;;;;;;;;;;;;;;27.82;95.86;98096.27;1702672;84;26151;-89
2022/07/23 08:32:37;;;;;;;;;;;;;;;27.94;95.71;98097.69;1706117;84;24564;-88
2022/07/23 08:35:03;;;;;;;;;;;;;;;28.06;95.22;98103.95;1707191;82;20268;-90
2022/07/23 08:37:29;;;;;;;;;;;;;;;28.17;94.70;98105.09;1699813;83;20816;-85
2022/07/23 08:39:56;;;;;;;;;;;;;;;28.23;93.72;98104.19;1694840;84;20262;-87
2022/07/23 08:42:23;;;;;;;;;;;;;;;28.30;93.20;98106.27;1697872;84;26061;-86
2022/07/23 08:44:56;;;;;;;;;;;;;;;28.40;92.83;98109.23;1692400;84;24499;-86
2022/07/23 08:47:23;;;;;;;9.70;6.78;;;;;;;28.50;92.28;98107.33;1687194;82;20270;-85
2022/07/23 08:49:52;;;;;;;7.75;6.12;;;;;;;28.56;91.63;98103.72;1694257;84;28155;-89
2022/07/23 08:52:20;;;;;;;8.58;6.92;;;;;;;28.63;91.04;98108.48;1688409;84;28104;-85
2022/07/23 08:54:46;;;;;;;9.38;6.78;;;;;;;28.72;90.41;98105.75;1687947;84;28081;-85
2022/07/23 08:57:14;;;;;;;8.73;6.22;;;;;;;28.85;90.06;98106.94;1686647;84;27998;-91
2022/07/23 08:59:41;;;;;;;8.13;6.08;;;;;;;28.96;89.56;98101.27;1687163;83;28073;-86
2022/07/23 09:02:08;;;;;;;8.88;6.92;;;;;;;29.06;88.64;98105.03;1689128;84;28099;-90
2022/07/23 09:04:36;;;;;;;10.80;6.87;;;;;;;29.16;88.19;98097.70;1690866;84;28093;-92
2022/07/23 09:07:02;;;;;;;8.50;6.22;;;;;;;29.27;88.35;98100.10;1691165;84;28085;-86
2022/07/23 09:09:30;;;;;;;8.30;6.80;;;;;;;29.35;87.78;98099.23;1690108;84;28132;-89
2022/07/23 09:12:03;;;;;;;7.67;6.10;;;;;;;29.42;86.83;98105.34;1688436;84;28076;-89
2022/07/23 09:14:44;;;;;;;9.73;6.17;;;;;;;29.51;85.81;98109.31;1685845;84;28105;-85
2022/07/23 09:17:14;;;;;;;6.83;5.92;;;;;;;29.62;85.42;98108.21;1688797;84;28188;-89
2022/07/23 09:19:42;;;;;;;8.25;6.20;;;;;;;29.72;84.73;98104.38;1688592;84;28081;-85
2022/07/23 09:22:26;;;;;;;6.20;5.60;;;;;;;29.80;84.17;98103.99;1692921;84;28128;-89
2022/07/23 09:25:13;;;;;;;8.03;6.10;;;;;;;29.85;82.90;98103.57;1691559;84;28121;-86
2022/07/23 09:27:59;;;;;;;8.30;5.85;;;;;;;29.96;81.75;98102.45;1688113;84;28193;-86
2022/07/23 09:30:32;;;;;;;9.93;6.05;;;;;;;30.13;80.85;98100.65;1690404;84;28120;-90
2022/07/23 09:33:10;;;;;;;7.58;5.80;;;;;;;30.42;80.23;98098.25;1687972;84;28120;-86
2022/07/23 09:35:56;;;;;;;7.85;5.62;;;;;;;30.70;79.74;98106.88;1687501;84;28077;-86
2022/07/23 09:38:29;;;;;;;6.65;5.92;;;;;;;30.81;78.75;98101.13;1693557;82;28096;-88
2022/07/23 09:41:10;;;;;;;6.90;5.50;;;;;;;30.85;77.33;98103.08;1698244;84;28037;-86
2022/07/23 09:43:42;;;;;;;8.27;6.37;;;;;;;30.98;76.22;98108.18;1696983;82;28085;-86
2022/07/23 09:46:24;;;;;;;7.08;5.50;;;;;;;31.19;75.41;98094.48;1698319;82;28565;-89
2022/07/23 09:48:52;;;;;;;9.50;6.03;;;;;;;31.35;74.97;98096.87;1695384;82;28091;-85
2022/07/23 09:53:52;;;;;;;8.63;5.95;;;;;;;31.50;73.34;98099.25;1696125;82;28152;-85
2022/07/23 09:56:20;;;;;;;6.03;5.42;;;;;;;31.71;72.24;98098.20;1695803;83;28128;-85
2022/07/23 09:58:51;;;;;;;6.33;5.05;;;;;;;31.84;71.37;98089.19;1695281;84;28010;-85
2022/07/23 10:01:21;;;;;;;7.00;5.00;;;;;;;31.96;70.54;98089.06;1694771;84;28073;-86
2022/07/23 10:03:49;;;;;;;6.25;5.65;;;;;;;32.05;69.03;98080.77;1698071;82;28170;-85
2022/07/23 10:06:18;;;;;;;5.75;5.25;;;;;;;32.15;67.69;98081.44;1677144;83;28048;-86
2022/07/23 10:08:48;;;;;;;7.45;5.37;;;;;;;32.21;66.47;98077.72;1696035;83;28210;-85
2022/07/23 10:11:20;;;;;;;5.10;4.60;;;;;;;32.21;65.32;98075.02;1696332;84;28136;-85
2022/07/23 10:13:54;;;;;;;6.20;5.60;;;;;;;32.23;64.51;98073.70;1697580;84;28054;-88
2022/07/23 10:16:22;;;;;;;6.90;5.10;;;;;;;32.18;63.44;98070.12;1653482;84;28072;-89
2022/07/23 10:18:49;;;;;;;6.83;5.45;;;;;;;32.28;63.26;98070.22;1655971;84;28126;-89
2022/07/23 10:21:35;;;;;;;6.20;5.40;;;;;;;32.39;62.61;98065.19;1643222;84;28119;-86
2022/07/23 10:24:22;;;;;;;7.35;5.17;;;;;;;32.40;61.57;98063.55;1653704;84;28103;-86
2022/07/23 10:27:24;;;;;;;5.15;4.75;;;;;;;32.39;60.65;98064.66;1646209;85;28179;-85
2022/07/23 10:30:06;;;;;;;5.78;4.90;;;;;;;32.43;59.91;98059.53;1660391;83;28099;-86
2022/07/23 10:32:55;;;;;;;6.95;5.20;;;;;;;32.44;58.78;98058.46;1638471;86;28087;-87
2022/07/23 10:35:36;;;;;;;6.03;5.15;;;;;;;32.49;58.22;98053.62;1670851;83;28077;-90
2022/07/23 10:38:04;;;;;;;;;;;;;;;32.55;57.61;98049.89;1658176;85;28274;-86
2022/07/23 10:40:34;;;;;;;6.37;4.87;;;;;;;32.49;56.33;98050.37;1671228;83;24473;-86
2022/07/23 10:43:07;;;;;;;6.65;5.15;;;;;;;32.37;55.31;98044.30;1683808;83;28071;-82
2022/07/23 10:45:35;;;;;;;7.08;5.30;;;;;;;32.38;55.00;98044.58;1684823;84;28120;-87
2022/07/23 10:48:23;;;;;;;7.80;5.50;;;;;;;32.49;54.75;98044.14;1695244;82;28118;-84
2022/07/23 10:51:09;;;;;;;7.05;5.30;;;;;;;32.61;54.48;98042.09;1688565;82;28195;-85
2022/07/23 10:53:55;;;;;;;5.65;4.97;;;;;;;32.63;53.73;98046.16;1694544;82;28066;-85
2022/07/23 10:56:57;;;;;;;5.75;5.08;;;;;;;32.70;53.09;98041.91;1700407;84;28109;-85
2022/07/23 10:59:23;;;;;;;6.95;5.47;;;;;;;32.62;52.23;98038.31;1691663;82;28117;-86
2022/07/23 11:02:15;;;;;;;4.97;4.58;;;;;;;32.61;51.94;98038.84;1654560;84;28073;-87
2022/07/23 11:04:53;;;;;;;5.20;4.62;;;;;;;32.65;51.69;98033.20;1654886;84;28156;-86
2022/07/23 11:07:19;;;;;;;6.83;5.00;;;;;;;32.73;51.01;98029.22;1653811;85;28062;-85
2022/07/23 11:09:47;;;;;;;6.35;5.60;;;;;;;32.82;50.94;98023.58;1664601;85;28205;-85
2022/07/23 11:12:22;;;;;;;6.58;5.55;;;;;;;32.99;50.87;98016.66;1671548;84;28039;-85
2022/07/23 11:15:09;;;;;;;7.60;5.80;;;;;;;33.06;50.66;98020.75;1655737;84;28141;-85
2022/07/23 11:17:39;;;;;;;5.97;5.37;;;;;;;33.15;50.67;98015.13;1665439;85;28094;-84
2022/07/23 11:20:15;;;;;;;6.17;5.58;;;;;;;33.19;50.21;98015.45;1685538;83;28076;-85
2022/07/23 11:22:49;;;;;;;7.22;5.20;;;;;;;33.22;49.99;98010.05;1682902;83;28147;-90
2022/07/23 11:25:30;;;;;;;5.60;5.10;;;;;;;33.33;49.81;98015.23;1682669;84;28126;-85
2022/07/23 11:28:16;;;;;;;6.97;6.15;;;;;;;33.27;49.06;98008.19;1684785;84;28087;-85
2022/07/23 11:30:46;;;;;;;6.95;5.12;;;;;;;33.33;49.02;98013.88;1667933;84;28074;-89
2022/07/23 11:33:16;;;;;;;6.37;5.65;;;;;;;33.35;48.76;98010.38;1683661;84;28069;-85
2022/07/23 11:35:46;;;;;;;7.85;5.70;;;;;;;33.18;48.04;98002.42;1687827;83;28100;-85
2022/07/23 11:38:15;;;;;;;6.62;5.90;;;;;;;33.09;47.45;98002.62;1691052;84;28148;-85
2022/07/23 11:40:43;;;;;;;6.58;5.47;;;;;;;33.25;47.56;98008.97;1673970;83;28107;-85
2022/07/23 11:43:11;;;;;;;6.25;5.45;;;;;;;33.45;47.71;97990.61;1694853;83;28111;-85
2022/07/23 11:45:40;;;;;;;5.85;5.25;;;;;;;33.58;47.77;97995.56;1666187;84;28079;-85
2022/07/23 11:48:09;;;;;;;6.42;4.97;;;;;;;33.77;47.90;97991.88;1645380;84;28113;-89
2022/07/23 11:50:37;;;;;;;6.35;5.42;;;;;;;33.89;47.83;97985.64;1687467;82;28099;-89
2022/07/23 11:53:03;;;;;;;7.58;5.72;;;;;;;33.97;47.53;97980.52;1678451;83;28188;-85
2022/07/23 11:55:29;;;;;;;5.85;5.30;;;;;;;34.04;47.15;97977.55;1676646;85;28074;-86
2022/07/23 11:57:57;;;;;;;6.17;5.60;;;;;;;34.08;47.18;97971.84;1674823;83;28166;-86
2022/07/23 12:00:27;;;;;;;5.75;5.25;;;;;;;34.06;46.82;97972.64;1676851;83;28096;-90
2022/07/23 12:03:00;;;;;;;6.25;5.47;;;;;;;34.09;46.60;97964.51;1677715;85;28075;-87
2022/07/23 12:05:33;;;;;;;7.42;5.72;;;;;;;34.15;46.48;97960.72;1678382;83;28086;-86